sensor_id;sensor_type;location;lat;lon;timestamp;P1;durP1;ratioP1;P2;durP2;ratioP2
52208;SDS011;38507;53.132;6.394;2023-08-17T00:00:44;7.97;;;1.70;;
52208;SDS011;38507;53.132;6.394;2023-08-17T00:03:10;7.45;;;1.75;;
52208;SDS011;38507;53.132;6.394;2023-08-17T00:05:37;9.50;;;1.63;;
52208;SDS011;38507;53.132;6.394;2023-08-17T00:08:02;5.25;;;1.80;;
52208;SDS011;38507;53.132;6.394;2023-08-17T00:10:28;9.80;;;2.40;;
52208;SDS011;38507;53.132;6.394;2023-08-17T00:12:54;7.72;;;1.88;;
52208;SDS011;38507;53.132;6.394;2023-08-17T00:15:19;6.10;;;2.22;;
52208;SDS011;38507;53.132;6.394;2023-08-17T00:17:45;9.85;;;2.03;;
52208;SDS011;38507;53.132;6.394;2023-08-17T00:20:11;5.43;;;1.67;;
52208;SDS011;38507;53.132;6.394;2023-08-17T00:22:36;6.20;;;1.88;;
52208;SDS011;38507;53.132;6.394;2023-08-17T00:25:02;10.18;;;2.25;;
52208;SDS011;38507;53.132;6.394;2023-08-17T00:27:31;8.45;;;1.77;;
52208;SDS011;38507;53.132;6.394;2023-08-17T00:29:57;12.45;;;1.60;;
52208;SDS011;38507;53.132;6.394;2023-08-17T00:32:22;3.95;;;1.58;;
52208;SDS011;38507;53.132;6.394;2023-08-17T00:34:48;6.40;;;1.83;;
52208;SDS011;38507;53.132;6.394;2023-08-17T00:37:14;10.82;;;1.80;;
52208;SDS011;38507;53.132;6.394;2023-08-17T00:39:39;7.35;;;2.20;;
52208;SDS011;38507;53.132;6.394;2023-08-17T00:42:05;8.18;;;1.90;;
52208;SDS011;38507;53.132;6.394;2023-08-17T00:44:33;4.80;;;1.80;;
52208;SDS011;38507;53.132;6.394;2023-08-17T00:46:58;8.85;;;1.60;;
52208;SDS011;38507;53.132;6.394;2023-08-17T00:49:24;7.22;;;2.10;;
52208;SDS011;38507;53.132;6.394;2023-08-17T00:51:50;6.45;;;1.80;;
52208;SDS011;38507;53.132;6.394;2023-08-17T00:54:17;6.97;;;2.05;;
52208;SDS011;38507;53.132;6.394;2023-08-17T00:56:48;10.43;;;2.30;;
52208;SDS011;38507;53.132;6.394;2023-08-17T00:59:14;8.85;;;2.33;;
52208;SDS011;38507;53.132;6.394;2023-08-17T01:01:40;6.97;;;2.00;;
52208;SDS011;38507;53.132;6.394;2023-08-17T01:04:06;4.85;;;1.80;;
52208;SDS011;38507;53.132;6.394;2023-08-17T01:06:32;5.25;;;1.60;;
52208;SDS011;38507;53.132;6.394;2023-08-17T01:08:57;9.27;;;1.83;;
52208;SDS011;38507;53.132;6.394;2023-08-17T01:11:27;6.32;;;2.00;;
52208;SDS011;38507;53.132;6.394;2023-08-17T01:14:09;5.00;;;1.90;;
52208;SDS011;38507;53.132;6.394;2023-08-17T01:16:48;5.28;;;1.70;;
52208;SDS011;38507;53.132;6.394;2023-08-17T01:19:25;6.28;;;1.70;;
52208;SDS011;38507;53.132;6.394;2023-08-17T01:21:53;6.60;;;2.03;;
52208;SDS011;38507;53.132;6.394;2023-08-17T01:24:22;13.23;;;2.30;;
52208;SDS011;38507;53.132;6.394;2023-08-17T01:26:48;5.68;;;1.98;;
52208;SDS011;38507;53.132;6.394;2023-08-17T01:29:14;7.50;;;2.10;;
52208;SDS011;38507;53.132;6.394;2023-08-17T01:31:46;6.13;;;2.00;;
52208;SDS011;38507;53.132;6.394;2023-08-17T01:34:19;12.93;;;2.65;;
52208;SDS011;38507;53.132;6.394;2023-08-17T01:36:52;3.83;;;1.90;;
52208;SDS011;38507;53.132;6.394;2023-08-17T01:39:24;5.15;;;2.28;;
52208;SDS011;38507;53.132;6.394;2023-08-17T01:41:55;5.05;;;2.05;;
52208;SDS011;38507;53.132;6.394;2023-08-17T01:44:23;6.13;;;1.90;;
52208;SDS011;38507;53.132;6.394;2023-08-17T01:46:51;6.07;;;2.78;;
52208;SDS011;38507;53.132;6.394;2023-08-17T01:49:16;6.15;;;2.05;;
52208;SDS011;38507;53.132;6.394;2023-08-17T01:51:42;7.63;;;2.40;;
52208;SDS011;38507;53.132;6.394;2023-08-17T01:54:08;7.88;;;2.45;;
52208;SDS011;38507;53.132;6.394;2023-08-17T01:56:33;7.32;;;2.03;;
52208;SDS011;38507;53.132;6.394;2023-08-17T01:58:59;6.00;;;2.28;;
52208;SDS011;38507;53.132;6.394;2023-08-17T02:01:25;9.73;;;2.10;;
52208;SDS011;38507;53.132;6.394;2023-08-17T02:03:51;4.80;;;1.85;;
52208;SDS011;38507;53.132;6.394;2023-08-17T02:06:16;6.97;;;2.20;;
52208;SDS011;38507;53.132;6.394;2023-08-17T02:08:42;8.63;;;2.53;;
52208;SDS011;38507;53.132;6.394;2023-08-17T02:11:09;10.43;;;2.70;;
52208;SDS011;38507;53.132;6.394;2023-08-17T02:13:35;9.65;;;2.40;;
52208;SDS011;38507;53.132;6.394;2023-08-17T02:16:02;5.85;;;2.58;;
52208;SDS011;38507;53.132;6.394;2023-08-17T02:18:29;8.32;;;2.78;;
52208;SDS011;38507;53.132;6.394;2023-08-17T02:20:56;7.20;;;2.40;;
52208;SDS011;38507;53.132;6.394;2023-08-17T02:23:22;4.72;;;2.03;;
52208;SDS011;38507;53.132;6.394;2023-08-17T02:25:48;3.85;;;2.08;;
52208;SDS011;38507;53.132;6.394;2023-08-17T02:28:13;4.97;;;2.13;;
52208;SDS011;38507;53.132;6.394;2023-08-17T02:30:39;6.43;;;2.10;;
52208;SDS011;38507;53.132;6.394;2023-08-17T02:33:05;4.70;;;1.92;;
52208;SDS011;38507;53.132;6.394;2023-08-17T02:35:30;6.72;;;2.22;;
52208;SDS011;38507;53.132;6.394;2023-08-17T02:37:56;6.05;;;1.92;;
52208;SDS011;38507;53.132;6.394;2023-08-17T02:40:22;7.78;;;2.00;;
52208;SDS011;38507;53.132;6.394;2023-08-17T02:42:47;5.88;;;2.17;;
52208;SDS011;38507;53.132;6.394;2023-08-17T02:45:13;7.47;;;2.15;;
52208;SDS011;38507;53.132;6.394;2023-08-17T02:47:39;8.23;;;2.22;;
52208;SDS011;38507;53.132;6.394;2023-08-17T02:50:04;6.28;;;2.20;;
52208;SDS011;38507;53.132;6.394;2023-08-17T02:52:30;9.32;;;2.22;;
52208;SDS011;38507;53.132;6.394;2023-08-17T02:54:56;5.80;;;1.90;;
52208;SDS011;38507;53.132;6.394;2023-08-17T02:57:22;8.40;;;2.60;;
52208;SDS011;38507;53.132;6.394;2023-08-17T02:59:47;5.68;;;1.77;;
52208;SDS011;38507;53.132;6.394;2023-08-17T03:02:13;6.50;;;2.28;;
52208;SDS011;38507;53.132;6.394;2023-08-17T03:04:39;4.07;;;2.17;;
52208;SDS011;38507;53.132;6.394;2023-08-17T03:07:06;8.27;;;1.90;;
52208;SDS011;38507;53.132;6.394;2023-08-17T03:09:31;8.82;;;2.10;;
52208;SDS011;38507;53.132;6.394;2023-08-17T03:11:57;5.95;;;2.08;;
52208;SDS011;38507;53.132;6.394;2023-08-17T03:14:22;7.88;;;2.28;;
52208;SDS011;38507;53.132;6.394;2023-08-17T03:16:48;7.20;;;2.15;;
52208;SDS011;38507;53.132;6.394;2023-08-17T03:19:14;10.02;;;2.10;;
52208;SDS011;38507;53.132;6.394;2023-08-17T03:21:40;5.15;;;2.40;;
52208;SDS011;38507;53.132;6.394;2023-08-17T03:24:06;13.95;;;2.53;;
52208;SDS011;38507;53.132;6.394;2023-08-17T03:26:31;7.97;;;2.30;;
52208;SDS011;38507;53.132;6.394;2023-08-17T03:28:57;6.15;;;2.00;;
52208;SDS011;38507;53.132;6.394;2023-08-17T03:31:23;7.57;;;2.15;;
52208;SDS011;38507;53.132;6.394;2023-08-17T03:33:48;5.30;;;2.00;;
52208;SDS011;38507;53.132;6.394;2023-08-17T03:36:14;8.38;;;2.20;;
52208;SDS011;38507;53.132;6.394;2023-08-17T03:38:40;6.63;;;2.75;;
52208;SDS011;38507;53.132;6.394;2023-08-17T03:41:06;7.63;;;2.40;;
52208;SDS011;38507;53.132;6.394;2023-08-17T03:43:32;9.20;;;2.22;;
52208;SDS011;38507;53.132;6.394;2023-08-17T03:45:58;9.18;;;2.30;;
52208;SDS011;38507;53.132;6.394;2023-08-17T03:48:24;7.32;;;2.63;;
52208;SDS011;38507;53.132;6.394;2023-08-17T03:50:56;5.10;;;2.42;;
52208;SDS011;38507;53.132;6.394;2023-08-17T03:53:21;5.57;;;2.33;;
52208;SDS011;38507;53.132;6.394;2023-08-17T03:55:50;9.38;;;2.55;;
52208;SDS011;38507;53.132;6.394;2023-08-17T03:58:16;6.05;;;2.45;;
52208;SDS011;38507;53.132;6.394;2023-08-17T04:00:48;7.25;;;1.77;;
52208;SDS011;38507;53.132;6.394;2023-08-17T04:03:14;7.70;;;2.35;;
52208;SDS011;38507;53.132;6.394;2023-08-17T04:05:40;5.72;;;2.03;;
52208;SDS011;38507;53.132;6.394;2023-08-17T04:08:06;4.47;;;1.70;;
52208;SDS011;38507;53.132;6.394;2023-08-17T04:10:31;8.10;;;1.90;;
52208;SDS011;38507;53.132;6.394;2023-08-17T04:12:57;11.13;;;1.92;;
52208;SDS011;38507;53.132;6.394;2023-08-17T04:15:23;7.10;;;1.80;;
52208;SDS011;38507;53.132;6.394;2023-08-17T04:17:48;5.93;;;1.73;;
52208;SDS011;38507;53.132;6.394;2023-08-17T04:20:14;10.60;;;1.85;;
52208;SDS011;38507;53.132;6.394;2023-08-17T04:22:40;7.05;;;1.77;;
52208;SDS011;38507;53.132;6.394;2023-08-17T04:25:06;9.65;;;1.80;;
52208;SDS011;38507;53.132;6.394;2023-08-17T04:27:32;4.25;;;1.70;;
52208;SDS011;38507;53.132;6.394;2023-08-17T04:29:58;6.30;;;2.30;;
52208;SDS011;38507;53.132;6.394;2023-08-17T04:32:25;6.72;;;2.08;;
52208;SDS011;38507;53.132;6.394;2023-08-17T04:34:50;4.60;;;1.73;;
52208;SDS011;38507;53.132;6.394;2023-08-17T04:37:16;6.05;;;1.85;;
52208;SDS011;38507;53.132;6.394;2023-08-17T04:39:42;3.45;;;1.70;;
52208;SDS011;38507;53.132;6.394;2023-08-17T04:42:08;4.60;;;1.60;;
52208;SDS011;38507;53.132;6.394;2023-08-17T04:44:34;5.95;;;1.70;;
52208;SDS011;38507;53.132;6.394;2023-08-17T04:47:00;7.65;;;1.73;;
52208;SDS011;38507;53.132;6.394;2023-08-17T04:49:26;6.05;;;2.00;;
52208;SDS011;38507;53.132;6.394;2023-08-17T04:51:52;8.43;;;2.20;;
52208;SDS011;38507;53.132;6.394;2023-08-17T04:54:18;7.32;;;2.13;;
52208;SDS011;38507;53.132;6.394;2023-08-17T04:56:43;6.57;;;2.25;;
52208;SDS011;38507;53.132;6.394;2023-08-17T04:59:09;6.30;;;2.10;;
52208;SDS011;38507;53.132;6.394;2023-08-17T05:01:34;5.93;;;2.03;;
52208;SDS011;38507;53.132;6.394;2023-08-17T05:04:00;6.20;;;2.17;;
52208;SDS011;38507;53.132;6.394;2023-08-17T05:06:29;9.60;;;2.38;;
52208;SDS011;38507;53.132;6.394;2023-08-17T05:08:56;4.78;;;1.83;;
52208;SDS011;38507;53.132;6.394;2023-08-17T05:11:21;8.93;;;2.28;;
52208;SDS011;38507;53.132;6.394;2023-08-17T05:13:47;7.93;;;2.35;;
52208;SDS011;38507;53.132;6.394;2023-08-17T05:16:13;6.45;;;2.00;;
52208;SDS011;38507;53.132;6.394;2023-08-17T05:18:38;6.28;;;2.00;;
52208;SDS011;38507;53.132;6.394;2023-08-17T05:21:04;8.00;;;2.03;;
52208;SDS011;38507;53.132;6.394;2023-08-17T05:23:29;8.25;;;2.30;;
52208;SDS011;38507;53.132;6.394;2023-08-17T05:25:55;6.05;;;2.10;;
52208;SDS011;38507;53.132;6.394;2023-08-17T05:28:21;5.78;;;1.90;;
52208;SDS011;38507;53.132;6.394;2023-08-17T05:30:46;5.75;;;2.00;;
52208;SDS011;38507;53.132;6.394;2023-08-17T05:33:12;9.70;;;2.03;;
52208;SDS011;38507;53.132;6.394;2023-08-17T05:35:38;5.65;;;1.73;;
52208;SDS011;38507;53.132;6.394;2023-08-17T05:38:03;9.45;;;1.88;;
52208;SDS011;38507;53.132;6.394;2023-08-17T05:40:29;7.85;;;1.83;;
52208;SDS011;38507;53.132;6.394;2023-08-17T05:42:56;4.03;;;1.80;;
52208;SDS011;38507;53.132;6.394;2023-08-17T05:45:21;4.75;;;1.60;;
52208;SDS011;38507;53.132;6.394;2023-08-17T05:47:47;7.18;;;1.50;;
52208;SDS011;38507;53.132;6.394;2023-08-17T05:50:13;11.70;;;2.05;;
52208;SDS011;38507;53.132;6.394;2023-08-17T05:52:39;6.55;;;1.42;;
52208;SDS011;38507;53.132;6.394;2023-08-17T05:55:05;9.07;;;1.85;;
52208;SDS011;38507;53.132;6.394;2023-08-17T05:57:31;8.55;;;1.67;;
52208;SDS011;38507;53.132;6.394;2023-08-17T05:59:58;5.97;;;1.70;;
52208;SDS011;38507;53.132;6.394;2023-08-17T06:02:24;3.85;;;1.45;;
52208;SDS011;38507;53.132;6.394;2023-08-17T06:04:50;6.72;;;1.60;;
52208;SDS011;38507;53.132;6.394;2023-08-17T06:07:15;5.78;;;1.42;;
52208;SDS011;38507;53.132;6.394;2023-08-17T06:09:41;6.15;;;1.48;;
52208;SDS011;38507;53.132;6.394;2023-08-17T06:12:07;5.80;;;1.63;;
52208;SDS011;38507;53.132;6.394;2023-08-17T06:14:33;9.02;;;1.83;;
52208;SDS011;38507;53.132;6.394;2023-08-17T06:16:59;7.43;;;1.90;;
52208;SDS011;38507;53.132;6.394;2023-08-17T06:19:25;4.05;;;1.30;;
52208;SDS011;38507;53.132;6.394;2023-08-17T06:21:51;9.27;;;1.55;;
52208;SDS011;38507;53.132;6.394;2023-08-17T06:24:17;7.03;;;1.90;;
52208;SDS011;38507;53.132;6.394;2023-08-17T06:26:43;20.38;;;2.90;;
52208;SDS011;38507;53.132;6.394;2023-08-17T06:29:09;8.27;;;1.83;;
52208;SDS011;38507;53.132;6.394;2023-08-17T06:31:35;11.20;;;1.70;;
52208;SDS011;38507;53.132;6.394;2023-08-17T06:34:00;12.65;;;1.90;;
52208;SDS011;38507;53.132;6.394;2023-08-17T06:36:30;7.93;;;2.17;;
52208;SDS011;38507;53.132;6.394;2023-08-17T06:38:57;7.95;;;1.70;;
52208;SDS011;38507;53.132;6.394;2023-08-17T06:41:22;8.70;;;1.83;;
52208;SDS011;38507;53.132;6.394;2023-08-17T06:43:49;7.80;;;1.88;;
52208;SDS011;38507;53.132;6.394;2023-08-17T06:46:15;6.18;;;1.25;;
52208;SDS011;38507;53.132;6.394;2023-08-17T06:48:42;9.13;;;1.90;;
52208;SDS011;38507;53.132;6.394;2023-08-17T06:51:08;10.93;;;1.33;;
52208;SDS011;38507;53.132;6.394;2023-08-17T06:53:33;7.82;;;2.20;;
52208;SDS011;38507;53.132;6.394;2023-08-17T06:56:02;6.55;;;1.40;;
52208;SDS011;38507;53.132;6.394;2023-08-17T06:58:28;4.75;;;1.90;;
52208;SDS011;38507;53.132;6.394;2023-08-17T07:00:54;5.15;;;1.35;;
52208;SDS011;38507;53.132;6.394;2023-08-17T07:03:19;6.05;;;1.40;;
52208;SDS011;38507;53.132;6.394;2023-08-17T07:05:45;6.75;;;1.15;;
52208;SDS011;38507;53.132;6.394;2023-08-17T07:08:11;5.38;;;1.10;;
52208;SDS011;38507;53.132;6.394;2023-08-17T07:10:38;5.22;;;1.10;;
52208;SDS011;38507;53.132;6.394;2023-08-17T07:13:04;4.82;;;1.17;;
52208;SDS011;38507;53.132;6.394;2023-08-17T07:15:31;6.13;;;1.40;;
52208;SDS011;38507;53.132;6.394;2023-08-17T07:17:57;9.30;;;1.35;;
52208;SDS011;38507;53.132;6.394;2023-08-17T07:20:23;6.68;;;1.17;;
52208;SDS011;38507;53.132;6.394;2023-08-17T07:22:48;5.05;;;1.00;;
52208;SDS011;38507;53.132;6.394;2023-08-17T07:25:14;6.90;;;1.30;;
52208;SDS011;38507;53.132;6.394;2023-08-17T07:27:40;5.40;;;1.45;;
52208;SDS011;38507;53.132;6.394;2023-08-17T07:30:07;8.40;;;1.30;;
52208;SDS011;38507;53.132;6.394;2023-08-17T07:32:33;3.95;;;0.90;;
52208;SDS011;38507;53.132;6.394;2023-08-17T07:34:59;4.45;;;1.20;;
52208;SDS011;38507;53.132;6.394;2023-08-17T07:37:24;5.43;;;1.05;;
52208;SDS011;38507;53.132;6.394;2023-08-17T07:39:57;3.50;;;0.95;;
52208;SDS011;38507;53.132;6.394;2023-08-17T07:42:23;3.78;;;1.02;;
52208;SDS011;38507;53.132;6.394;2023-08-17T07:44:48;3.38;;;1.08;;
52208;SDS011;38507;53.132;6.394;2023-08-17T07:47:14;4.20;;;1.02;;
52208;SDS011;38507;53.132;6.394;2023-08-17T07:49:40;8.90;;;1.02;;
52208;SDS011;38507;53.132;6.394;2023-08-17T07:52:05;2.53;;;0.77;;
52208;SDS011;38507;53.132;6.394;2023-08-17T07:54:31;4.95;;;1.00;;
52208;SDS011;38507;53.132;6.394;2023-08-17T07:56:57;3.88;;;1.10;;
52208;SDS011;38507;53.132;6.394;2023-08-17T07:59:23;5.45;;;1.33;;
52208;SDS011;38507;53.132;6.394;2023-08-17T08:01:48;5.57;;;0.95;;
52208;SDS011;38507;53.132;6.394;2023-08-17T08:04:14;5.35;;;1.10;;
52208;SDS011;38507;53.132;6.394;2023-08-17T08:06:40;6.50;;;1.25;;
52208;SDS011;38507;53.132;6.394;2023-08-17T08:09:05;3.83;;;1.35;;
52208;SDS011;38507;53.132;6.394;2023-08-17T08:11:32;7.43;;;1.23;;
52208;SDS011;38507;53.132;6.394;2023-08-17T08:13:57;4.93;;;1.05;;
52208;SDS011;38507;53.132;6.394;2023-08-17T08:16:23;2.42;;;0.73;;
52208;SDS011;38507;53.132;6.394;2023-08-17T08:18:48;6.75;;;1.02;;
52208;SDS011;38507;53.132;6.394;2023-08-17T08:21:14;6.28;;;0.90;;
52208;SDS011;38507;53.132;6.394;2023-08-17T08:23:40;4.13;;;0.98;;
52208;SDS011;38507;53.132;6.394;2023-08-17T08:26:05;4.47;;;0.70;;
52208;SDS011;38507;53.132;6.394;2023-08-17T08:28:31;7.30;;;0.85;;
52208;SDS011;38507;53.132;6.394;2023-08-17T08:31:01;3.38;;;0.80;;
52208;SDS011;38507;53.132;6.394;2023-08-17T08:33:30;6.20;;;0.77;;
52208;SDS011;38507;53.132;6.394;2023-08-17T08:35:56;5.18;;;0.82;;
52208;SDS011;38507;53.132;6.394;2023-08-17T08:38:22;7.68;;;0.80;;
52208;SDS011;38507;53.132;6.394;2023-08-17T08:40:47;5.95;;;1.08;;
52208;SDS011;38507;53.132;6.394;2023-08-17T08:43:16;3.38;;;0.80;;
52208;SDS011;38507;53.132;6.394;2023-08-17T08:45:42;3.60;;;1.15;;
52208;SDS011;38507;53.132;6.394;2023-08-17T08:48:12;5.15;;;0.57;;
52208;SDS011;38507;53.132;6.394;2023-08-17T08:50:41;5.85;;;0.80;;
52208;SDS011;38507;53.132;6.394;2023-08-17T08:53:10;3.60;;;0.90;;
52208;SDS011;38507;53.132;6.394;2023-08-17T08:58:17;2.85;;;1.00;;
52208;SDS011;38507;53.132;6.394;2023-08-17T09:00:45;3.72;;;0.80;;
52208;SDS011;38507;53.132;6.394;2023-08-17T09:03:12;6.07;;;1.05;;
52208;SDS011;38507;53.132;6.394;2023-08-17T09:05:39;7.20;;;1.00;;
52208;SDS011;38507;53.132;6.394;2023-08-17T09:08:08;4.97;;;0.82;;
52208;SDS011;38507;53.132;6.394;2023-08-17T09:10:35;3.67;;;0.80;;
52208;SDS011;38507;53.132;6.394;2023-08-17T09:13:00;3.67;;;0.85;;
52208;SDS011;38507;53.132;6.394;2023-08-17T09:15:26;4.15;;;0.80;;
52208;SDS011;38507;53.132;6.394;2023-08-17T09:17:52;2.20;;;0.70;;
52208;SDS011;38507;53.132;6.394;2023-08-17T09:23:17;2.25;;;0.60;;
52208;SDS011;38507;53.132;6.394;2023-08-17T09:25:45;6.78;;;0.88;;
52208;SDS011;38507;53.132;6.394;2023-08-17T09:28:15;3.40;;;0.70;;
52208;SDS011;38507;53.132;6.394;2023-08-17T09:30:55;4.00;;;0.90;;
52208;SDS011;38507;53.132;6.394;2023-08-17T09:33:29;2.42;;;0.70;;
52208;SDS011;38507;53.132;6.394;2023-08-17T09:35:56;5.72;;;0.80;;
52208;SDS011;38507;53.132;6.394;2023-08-17T09:38:23;4.50;;;0.88;;
52208;SDS011;38507;53.132;6.394;2023-08-17T09:40:49;6.85;;;1.10;;
52208;SDS011;38507;53.132;6.394;2023-08-17T09:43:15;7.80;;;1.05;;
52208;SDS011;38507;53.132;6.394;2023-08-17T09:45:45;5.57;;;1.00;;
52208;SDS011;38507;53.132;6.394;2023-08-17T09:48:14;3.63;;;0.60;;
52208;SDS011;38507;53.132;6.394;2023-08-17T09:50:46;5.78;;;0.80;;
52208;SDS011;38507;53.132;6.394;2023-08-17T09:53:16;6.53;;;1.08;;
52208;SDS011;38507;53.132;6.394;2023-08-17T09:55:43;4.05;;;0.85;;
52208;SDS011;38507;53.132;6.394;2023-08-17T09:58:10;5.20;;;1.17;;
52208;SDS011;38507;53.132;6.394;2023-08-17T10:00:42;3.55;;;0.80;;
52208;SDS011;38507;53.132;6.394;2023-08-17T10:03:10;4.00;;;0.95;;
52208;SDS011;38507;53.132;6.394;2023-08-17T10:05:39;3.88;;;1.00;;
52208;SDS011;38507;53.132;6.394;2023-08-17T10:08:07;6.72;;;0.90;;
52208;SDS011;38507;53.132;6.394;2023-08-17T10:10:38;5.10;;;1.00;;
52208;SDS011;38507;53.132;6.394;2023-08-17T10:21:42;8.07;;;1.38;;
52208;SDS011;38507;53.132;6.394;2023-08-17T10:24:11;6.63;;;1.25;;
52208;SDS011;38507;53.132;6.394;2023-08-17T10:26:37;5.32;;;0.73;;
52208;SDS011;38507;53.132;6.394;2023-08-17T10:29:04;7.03;;;1.42;;
52208;SDS011;38507;53.132;6.394;2023-08-17T10:31:33;7.25;;;1.30;;
52208;SDS011;38507;53.132;6.394;2023-08-17T10:33:59;3.58;;;0.85;;
52208;SDS011;38507;53.132;6.394;2023-08-17T10:36:26;8.25;;;1.23;;
52208;SDS011;38507;53.132;6.394;2023-08-17T10:41:51;5.35;;;0.93;;
52208;SDS011;38507;53.132;6.394;2023-08-17T10:49:48;4.35;;;0.90;;
52208;SDS011;38507;53.132;6.394;2023-08-17T10:52:44;3.38;;;0.90;;
52208;SDS011;38507;53.132;6.394;2023-08-17T10:55:13;5.13;;;0.95;;
52208;SDS011;38507;53.132;6.394;2023-08-17T10:57:40;3.40;;;1.00;;
52208;SDS011;38507;53.132;6.394;2023-08-17T11:00:07;6.47;;;1.00;;
52208;SDS011;38507;53.132;6.394;2023-08-17T11:05:35;5.35;;;0.90;;
52208;SDS011;38507;53.132;6.394;2023-08-17T11:08:02;4.40;;;1.10;;
52208;SDS011;38507;53.132;6.394;2023-08-17T11:10:29;5.57;;;1.70;;
52208;SDS011;38507;53.132;6.394;2023-08-17T11:12:56;12.85;;;1.83;;
52208;SDS011;38507;53.132;6.394;2023-08-17T11:15:34;9.05;;;1.35;;
52208;SDS011;38507;53.132;6.394;2023-08-17T11:18:05;4.20;;;0.90;;
52208;SDS011;38507;53.132;6.394;2023-08-17T11:20:32;8.05;;;1.23;;
52208;SDS011;38507;53.132;6.394;2023-08-17T11:22:58;5.75;;;1.10;;
52208;SDS011;38507;53.132;6.394;2023-08-17T11:25:25;5.05;;;1.70;;
52208;SDS011;38507;53.132;6.394;2023-08-17T11:27:52;7.18;;;1.55;;
52208;SDS011;38507;53.132;6.394;2023-08-17T11:30:21;4.70;;;1.10;;
52208;SDS011;38507;53.132;6.394;2023-08-17T11:32:51;4.70;;;1.00;;
52208;SDS011;38507;53.132;6.394;2023-08-17T11:35:18;5.15;;;1.10;;
52208;SDS011;38507;53.132;6.394;2023-08-17T11:37:45;4.90;;;1.08;;
52208;SDS011;38507;53.132;6.394;2023-08-17T11:40:11;7.05;;;1.40;;
52208;SDS011;38507;53.132;6.394;2023-08-17T11:42:37;3.17;;;1.05;;
52208;SDS011;38507;53.132;6.394;2023-08-17T11:45:04;3.40;;;1.10;;
52208;SDS011;38507;53.132;6.394;2023-08-17T11:47:30;5.78;;;1.20;;
52208;SDS011;38507;53.132;6.394;2023-08-17T11:50:00;4.68;;;0.82;;
52208;SDS011;38507;53.132;6.394;2023-08-17T11:52:27;6.30;;;1.80;;
52208;SDS011;38507;53.132;6.394;2023-08-17T11:54:54;6.18;;;1.08;;
52208;SDS011;38507;53.132;6.394;2023-08-17T11:57:21;4.38;;;1.05;;
52208;SDS011;38507;53.132;6.394;2023-08-17T11:59:47;3.95;;;1.10;;
52208;SDS011;38507;53.132;6.394;2023-08-17T12:02:12;5.72;;;1.33;;
52208;SDS011;38507;53.132;6.394;2023-08-17T12:04:38;4.38;;;1.13;;
52208;SDS011;38507;53.132;6.394;2023-08-17T12:07:04;4.18;;;1.17;;
52208;SDS011;38507;53.132;6.394;2023-08-17T12:09:33;9.55;;;2.10;;
52208;SDS011;38507;53.132;6.394;2023-08-17T12:11:59;4.65;;;1.80;;
52208;SDS011;38507;53.132;6.394;2023-08-17T12:14:27;6.80;;;1.45;;
52208;SDS011;38507;53.132;6.394;2023-08-17T12:16:53;5.25;;;1.30;;
52208;SDS011;38507;53.132;6.394;2023-08-17T12:19:19;4.63;;;1.17;;
52208;SDS011;38507;53.132;6.394;2023-08-17T12:21:45;3.53;;;0.98;;
52208;SDS011;38507;53.132;6.394;2023-08-17T12:24:13;4.55;;;1.20;;
52208;SDS011;38507;53.132;6.394;2023-08-17T12:26:45;4.20;;;1.23;;
52208;SDS011;38507;53.132;6.394;2023-08-17T12:29:12;5.28;;;1.35;;
52208;SDS011;38507;53.132;6.394;2023-08-17T12:31:38;8.65;;;1.38;;
52208;SDS011;38507;53.132;6.394;2023-08-17T12:34:04;4.28;;;1.20;;
52208;SDS011;38507;53.132;6.394;2023-08-17T12:36:34;5.85;;;1.25;;
52208;SDS011;38507;53.132;6.394;2023-08-17T12:39:03;5.43;;;1.67;;
52208;SDS011;38507;53.132;6.394;2023-08-17T12:41:29;5.00;;;1.27;;
52208;SDS011;38507;53.132;6.394;2023-08-17T12:43:55;4.55;;;1.23;;
52208;SDS011;38507;53.132;6.394;2023-08-17T12:46:24;6.07;;;1.35;;
52208;SDS011;38507;53.132;6.394;2023-08-17T12:48:50;8.77;;;1.52;;
52208;SDS011;38507;53.132;6.394;2023-08-17T12:51:15;4.70;;;1.60;;
52208;SDS011;38507;53.132;6.394;2023-08-17T12:53:41;5.15;;;1.65;;
52208;SDS011;38507;53.132;6.394;2023-08-17T12:56:07;5.88;;;1.30;;
52208;SDS011;38507;53.132;6.394;2023-08-17T12:58:33;7.03;;;1.10;;
52208;SDS011;38507;53.132;6.394;2023-08-17T13:00:59;7.18;;;1.27;;
52208;SDS011;38507;53.132;6.394;2023-08-17T13:03:24;7.80;;;1.48;;
52208;SDS011;38507;53.132;6.394;2023-08-17T13:05:50;7.13;;;1.10;;
52208;SDS011;38507;53.132;6.394;2023-08-17T13:08:16;8.30;;;1.35;;
52208;SDS011;38507;53.132;6.394;2023-08-17T13:10:41;4.60;;;1.02;;
52208;SDS011;38507;53.132;6.394;2023-08-17T13:13:07;4.45;;;1.23;;
52208;SDS011;38507;53.132;6.394;2023-08-17T13:15:33;7.40;;;1.42;;
52208;SDS011;38507;53.132;6.394;2023-08-17T13:17:59;11.40;;;1.70;;
52208;SDS011;38507;53.132;6.394;2023-08-17T13:20:25;6.72;;;1.00;;
52208;SDS011;38507;53.132;6.394;2023-08-17T13:22:50;6.78;;;1.83;;
52208;SDS011;38507;53.132;6.394;2023-08-17T13:25:16;5.00;;;1.60;;
52208;SDS011;38507;53.132;6.394;2023-08-17T13:27:42;4.35;;;1.20;;
52208;SDS011;38507;53.132;6.394;2023-08-17T13:30:08;5.00;;;1.10;;
52208;SDS011;38507;53.132;6.394;2023-08-17T13:32:34;2.00;;;1.05;;
52208;SDS011;38507;53.132;6.394;2023-08-17T13:35:01;8.95;;;1.80;;
52208;SDS011;38507;53.132;6.394;2023-08-17T13:37:27;8.50;;;1.50;;
52208;SDS011;38507;53.132;6.394;2023-08-17T13:39:53;4.97;;;1.13;;
52208;SDS011;38507;53.132;6.394;2023-08-17T13:42:19;5.90;;;1.48;;
52208;SDS011;38507;53.132;6.394;2023-08-17T13:44:45;7.55;;;2.30;;
52208;SDS011;38507;53.132;6.394;2023-08-17T13:47:11;11.63;;;1.50;;
52208;SDS011;38507;53.132;6.394;2023-08-17T13:49:37;4.53;;;1.10;;
52208;SDS011;38507;53.132;6.394;2023-08-17T13:52:03;5.60;;;1.45;;
52208;SDS011;38507;53.132;6.394;2023-08-17T13:54:29;3.70;;;1.50;;
52208;SDS011;38507;53.132;6.394;2023-08-17T13:56:54;7.47;;;1.40;;
52208;SDS011;38507;53.132;6.394;2023-08-17T13:59:20;4.22;;;1.20;;
52208;SDS011;38507;53.132;6.394;2023-08-17T14:01:46;6.55;;;1.52;;
52208;SDS011;38507;53.132;6.394;2023-08-17T14:04:11;8.48;;;1.73;;
52208;SDS011;38507;53.132;6.394;2023-08-17T14:06:37;5.15;;;1.45;;
52208;SDS011;38507;53.132;6.394;2023-08-17T14:09:04;5.50;;;1.15;;
52208;SDS011;38507;53.132;6.394;2023-08-17T14:11:30;10.18;;;1.55;;
52208;SDS011;38507;53.132;6.394;2023-08-17T14:13:56;7.07;;;1.20;;
52208;SDS011;38507;53.132;6.394;2023-08-17T14:16:21;6.60;;;1.40;;
52208;SDS011;38507;53.132;6.394;2023-08-17T14:18:47;6.57;;;1.30;;
52208;SDS011;38507;53.132;6.394;2023-08-17T14:21:13;7.50;;;1.70;;
52208;SDS011;38507;53.132;6.394;2023-08-17T14:23:38;7.47;;;1.45;;
52208;SDS011;38507;53.132;6.394;2023-08-17T14:26:05;6.05;;;1.75;;
52208;SDS011;38507;53.132;6.394;2023-08-17T14:28:31;8.77;;;1.95;;
52208;SDS011;38507;53.132;6.394;2023-08-17T14:30:56;6.00;;;1.55;;
52208;SDS011;38507;53.132;6.394;2023-08-17T14:33:22;11.88;;;1.80;;
52208;SDS011;38507;53.132;6.394;2023-08-17T14:35:48;7.35;;;1.70;;
52208;SDS011;38507;53.132;6.394;2023-08-17T14:38:14;12.20;;;1.75;;
52208;SDS011;38507;53.132;6.394;2023-08-17T14:40:44;7.03;;;1.38;;
52208;SDS011;38507;53.132;6.394;2023-08-17T14:43:11;3.47;;;1.40;;
52208;SDS011;38507;53.132;6.394;2023-08-17T14:45:39;5.63;;;1.70;;
52208;SDS011;38507;53.132;6.394;2023-08-17T14:48:05;3.67;;;1.38;;
52208;SDS011;38507;53.132;6.394;2023-08-17T14:50:32;5.93;;;1.70;;
52208;SDS011;38507;53.132;6.394;2023-08-17T14:52:58;5.45;;;1.60;;
52208;SDS011;38507;53.132;6.394;2023-08-17T14:55:27;5.45;;;1.75;;
52208;SDS011;38507;53.132;6.394;2023-08-17T14:57:54;4.75;;;1.40;;
52208;SDS011;38507;53.132;6.394;2023-08-17T15:00:20;6.53;;;2.00;;
52208;SDS011;38507;53.132;6.394;2023-08-17T15:02:46;6.25;;;1.55;;
52208;SDS011;38507;53.132;6.394;2023-08-17T15:05:12;4.82;;;1.70;;
52208;SDS011;38507;53.132;6.394;2023-08-17T15:07:38;9.13;;;2.10;;
52208;SDS011;38507;53.132;6.394;2023-08-17T15:10:03;7.75;;;1.60;;